This is the latest recevied weather packets stored in our database for station/object KD5HIA. If no packets are shown the sender has not sent any weather packets the latest 10 day(s).
| Time | Temp. | Humidity | Pressure | Rain* | Wind** | Luminosity | Snow |
|---|---|---|---|---|---|---|---|
| 1777929017 | 31.67° C | 40% | 1008.7 hPa | 0 mm | - | 745 W/m² | - |
| 1777928417 | 31.67° C | 39% | 1009.1 hPa | 0 mm | - | 718 W/m² | - |
| 1777927817 | 31.11° C | 41% | 1009.2 hPa | 0 mm | - | 739 W/m² | - |
| 1777927217 | 31.11° C | 41% | 1009.3 hPa | 0 mm | - | 759 W/m² | - |
| 1777926617 | 31.11° C | 41% | 1009.5 hPa | 0 mm | - | 791 W/m² | - |
| 1777926017 | 30.56° C | 42% | 1009.5 hPa | 0 mm | - | 788 W/m² | - |
| 1777925417 | 31.11° C | 43% | 1009.5 hPa | 0 mm | - | 649 W/m² | - |
| 1777924817 | 30.56° C | 42% | 1009.9 hPa | 0 mm | - | 858 W/m² | - |
| 1777924217 | 31.11° C | 43% | 1010.1 hPa | 0 mm | - | 794 W/m² | - |
| 1777923617 | 30.56° C | 43% | 1010.2 hPa | 0 mm | - | 871 W/m² | - |
| 1777923017 | 29.44° C | 43% | 1010.4 hPa | 0 mm | - | 718 W/m² | - |
| 1777922417 | 29.44° C | 46% | 1010.5 hPa | 0 mm | - | 786 W/m² | - |
| 1777921817 | 28.89° C | 46% | 1010.5 hPa | 0 mm | - | 486 W/m² | - |
| 1777921217 | 28.33° C | 47% | 1010.7 hPa | 0 mm | - | 602 W/m² | - |
| 1777920617 | 28.89° C | 47% | 1011.1 hPa | 0 mm | - | 881 W/m² | - |
| 1777920017 | 27.78° C | 49% | 1011 hPa | 0 mm | - | 557 W/m² | - |
| 1777919417 | 27.78° C | 49% | 1011.4 hPa | 0 mm | - | 710 W/m² | - |
| 1777918217 | 27.22° C | 51% | 1011.8 hPa | 0 mm | - | 644 W/m² | - |
| 1777917617 | 26.67° C | 51% | 1011.8 hPa | 0 mm | - | 547 W/m² | - |
| 1777917017 | 27.22° C | 52% | 1012.2 hPa | 0 mm | - | 918 W/m² | - |
| 1777916417 | 26.67° C | 53% | 1012.1 hPa | 0 mm | - | 511 W/m² | - |
| 1777915817 | 26.67° C | 53% | 1012.1 hPa | 0 mm | - | 800 W/m² | - |
| 1777915217 | 26.11° C | 55% | 1012.4 hPa | 0 mm | - | 772 W/m² | - |
| 1777914617 | 25.56° C | 56% | 1012.5 hPa | 0 mm | - | 777 W/m² | - |
| 1777914021 | 25.56° C | 55% | 1012.6 hPa | 0 mm | - | 805 W/m² | - |
* Rain latest hour (hover to see other rain measurements)
** Current wind speed in m/s (hover to see current wind gust speed)